createdAt,value
2018-06-07T00:01:00.347Z,67.7
2018-06-07T00:02:01.009Z,67.5
2018-06-07T00:03:01.676Z,67.4
2018-06-07T00:04:02.334Z,67.2
2018-06-07T00:05:02.994Z,67.3
2018-06-07T00:06:03.658Z,67.2
2018-06-07T00:07:04.317Z,67.0
2018-06-07T00:08:04.980Z,67.3
2018-06-07T00:09:05.642Z,67.2
2018-06-07T00:10:06.302Z,67.6
2018-06-07T00:11:06.963Z,67.3
2018-06-07T00:12:07.668Z,67.4
2018-06-07T00:13:08.327Z,67.3
2018-06-07T00:14:08.990Z,67.4
2018-06-07T00:15:09.650Z,67.5
2018-06-07T00:16:10.315Z,67.0
2018-06-07T00:17:10.973Z,67.0
2018-06-07T00:18:11.635Z,67.5
2018-06-07T00:19:12.297Z,67.2
2018-06-07T00:20:12.958Z,67.2
2018-06-07T00:21:13.617Z,67.7
2018-06-07T00:22:14.280Z,67.4
2018-06-07T00:23:14.941Z,67.7
2018-06-07T00:24:15.602Z,67.3
2018-06-07T00:25:16.263Z,67.4
2018-06-07T00:26:16.926Z,67.6
2018-06-07T00:27:17.585Z,67.6
2018-06-07T00:28:18.248Z,67.9
2018-06-07T00:29:18.950Z,67.8
2018-06-07T00:30:19.613Z,67.7
2018-06-07T00:31:20.270Z,67.7
2018-06-07T00:32:20.973Z,67.9
2018-06-07T00:33:21.672Z,68.0
2018-06-07T00:34:22.333Z,67.8
2018-06-07T00:35:23.033Z,67.6
2018-06-07T00:36:23.695Z,67.8
2018-06-07T00:37:24.356Z,67.6
2018-06-07T00:38:25.019Z,67.8
2018-06-07T00:39:25.682Z,67.6
2018-06-07T00:40:26.343Z,67.6
2018-06-07T00:41:27.005Z,67.6
2018-06-07T00:42:27.667Z,67.7
2018-06-07T00:43:28.327Z,67.7
2018-06-07T00:44:28.989Z,67.6
2018-06-07T00:45:29.651Z,67.4
2018-06-07T00:46:30.311Z,67.5
2018-06-07T00:47:30.972Z,67.4
2018-06-07T00:48:31.632Z,67.5
2018-06-07T00:49:32.294Z,67.6
2018-06-07T00:50:32.955Z,67.3
2018-06-07T00:51:33.613Z,67.6
2018-06-07T00:52:34.274Z,67.7
2018-06-07T00:53:34.934Z,67.7
2018-06-07T00:54:35.596Z,67.6
2018-06-07T00:55:36.256Z,67.6
2018-06-07T00:56:36.917Z,67.7
2018-06-07T00:57:37.577Z,67.7
2018-06-07T00:58:38.238Z,67.6
2018-06-07T00:59:38.939Z,67.7
2018-06-07T01:00:39.600Z,67.6
2018-06-07T01:01:40.259Z,67.6
2018-06-07T01:02:40.921Z,67.7
2018-06-07T01:03:41.580Z,67.6
2018-06-07T01:04:42.244Z,67.5
2018-06-07T01:05:42.906Z,67.9
2018-06-07T01:06:43.566Z,67.7
2018-06-07T01:07:44.226Z,67.6
2018-06-07T01:08:44.888Z,67.5
2018-06-07T01:09:45.549Z,67.7
2018-06-07T01:10:46.212Z,67.6
2018-06-07T01:11:46.922Z,67.7
2018-06-07T01:12:47.583Z,67.9
2018-06-07T01:13:48.266Z,67.7
2018-06-07T01:14:48.907Z,67.7
2018-06-07T01:15:49.605Z,68.4
2018-06-07T01:16:50.267Z,68.1
2018-06-07T01:17:50.927Z,68.2
2018-06-07T01:18:51.588Z,68.6
2018-06-07T01:19:52.248Z,68.3
2018-06-07T01:20:52.909Z,69.0
2018-06-07T01:21:53.570Z,68.6
2018-06-07T01:22:54.231Z,68.6
2018-06-07T01:23:54.890Z,68.9
2018-06-07T01:24:55.590Z,68.3
2018-06-07T01:25:56.251Z,68.4
2018-06-07T01:26:57.163Z,68.1
2018-06-07T01:27:57.825Z,68.0
2018-06-07T01:28:58.486Z,68.0
2018-06-07T01:29:59.147Z,68.6
2018-06-07T01:30:59.809Z,68.4
2018-06-07T01:32:00.471Z,68.1
2018-06-07T01:33:01.133Z,68.0
2018-06-07T01:34:01.793Z,68.5
2018-06-07T01:35:02.452Z,68.3
2018-06-07T01:36:03.118Z,68.9
2018-06-07T01:37:03.776Z,68.8
2018-06-07T01:38:04.436Z,68.8
2018-06-07T01:39:05.100Z,69.2
2018-06-07T01:40:05.756Z,69.1
2018-06-07T01:41:06.415Z,69.0
2018-06-07T01:42:07.128Z,69.3
2018-06-07T01:43:07.828Z,68.9
2018-06-07T01:44:08.490Z,69.0
2018-06-07T01:45:09.148Z,69.5
2018-06-07T01:46:09.813Z,69.4
2018-06-07T01:47:10.468Z,69.1
2018-06-07T01:48:11.131Z,69.5
2018-06-07T01:49:11.790Z,69.1
2018-06-07T01:50:12.449Z,68.9
2018-06-07T01:51:13.109Z,68.5
2018-06-07T01:52:13.769Z,68.8
2018-06-07T01:53:14.433Z,68.6
2018-06-07T01:54:15.093Z,68.8
2018-06-07T01:55:15.754Z,68.7
2018-06-07T01:56:16.414Z,68.9
2018-06-07T01:57:17.074Z,68.8
2018-06-07T01:58:17.734Z,68.4
2018-06-07T01:59:18.396Z,68.8
2018-06-07T02:00:19.055Z,68.7
2018-06-07T02:01:19.715Z,68.8
2018-06-07T02:02:20.375Z,68.8
2018-06-07T02:03:21.077Z,68.9
2018-06-07T02:04:21.740Z,69.0
2018-06-07T02:05:22.399Z,69.1
2018-06-07T02:06:23.061Z,68.9
2018-06-07T02:07:23.721Z,68.8
2018-06-07T02:08:24.383Z,69.0
2018-06-07T02:09:25.084Z,68.8
2018-06-07T02:10:25.781Z,68.8
2018-06-07T02:11:26.442Z,69.1
2018-06-07T02:12:27.101Z,69.4
2018-06-07T02:13:27.762Z,69.1
2018-06-07T02:14:28.424Z,69.2
2018-06-07T02:15:29.083Z,69.1
2018-06-07T02:16:29.744Z,69.5
2018-06-07T02:17:30.444Z,69.7
2018-06-07T02:18:31.105Z,70.1
2018-06-07T02:19:31.767Z,69.7
2018-06-07T02:20:32.426Z,69.3
2018-06-07T02:21:33.090Z,69.2
2018-06-07T02:22:33.786Z,69.6
2018-06-07T02:23:34.447Z,69.7
2018-06-07T02:24:35.107Z,69.3
2018-06-07T02:25:35.805Z,69.7
2018-06-07T02:26:36.505Z,69.5
2018-06-07T02:27:37.217Z,69.9
2018-06-07T02:28:37.918Z,69.6
2018-06-07T02:29:38.580Z,68.9
2018-06-07T02:30:39.240Z,68.5
2018-06-07T02:31:39.902Z,67.9
2018-06-07T02:32:40.567Z,67.6
2018-06-07T02:33:41.264Z,67.6
2018-06-07T02:34:41.925Z,67.5
2018-06-07T02:35:42.586Z,67.7
2018-06-07T02:36:43.245Z,68.1
2018-06-07T02:37:43.908Z,68.3
2018-06-07T02:38:44.569Z,68.4
2018-06-07T02:39:45.230Z,68.8
2018-06-07T02:40:45.891Z,67.6
2018-06-07T02:41:46.553Z,67.4
2018-06-07T02:42:47.213Z,67.5
2018-06-07T02:43:47.876Z,67.4
2018-06-07T02:44:48.537Z,67.8
2018-06-07T02:45:49.199Z,68.3
2018-06-07T02:46:49.862Z,68.4
2018-06-07T02:47:50.524Z,68.0
2018-06-07T02:48:51.183Z,68.4
2018-06-07T02:49:51.845Z,68.1
2018-06-07T02:50:52.505Z,67.5
2018-06-07T02:51:53.170Z,67.6
2018-06-07T02:52:53.830Z,67.6
2018-06-07T02:53:54.490Z,67.9
2018-06-07T02:54:55.151Z,68.3
2018-06-07T02:55:55.816Z,67.9
2018-06-07T02:56:56.474Z,68.4
2018-06-07T02:57:57.137Z,68.3
2018-06-07T02:58:57.801Z,68.0
2018-06-07T02:59:58.462Z,68.1
2018-06-07T03:00:59.124Z,68.1
2018-06-07T03:01:59.786Z,68.1
2018-06-07T03:03:00.450Z,68.5
2018-06-07T03:04:01.154Z,68.2
2018-06-07T03:05:01.817Z,68.5
2018-06-07T03:06:02.482Z,68.0
2018-06-07T03:07:03.143Z,68.0
2018-06-07T03:08:03.804Z,68.0
2018-06-07T03:09:04.466Z,68.4
2018-06-07T03:10:05.129Z,68.2
2018-06-07T03:11:05.791Z,68.2
2018-06-07T03:12:06.456Z,68.2
2018-06-07T03:13:07.117Z,68.5
2018-06-07T03:14:07.779Z,68.8
2018-06-07T03:15:08.441Z,68.8
2018-06-07T03:16:09.103Z,68.8
2018-06-07T03:17:09.771Z,68.7
2018-06-07T03:18:10.432Z,68.7
2018-06-07T03:19:11.095Z,68.8
2018-06-07T03:20:11.758Z,69.1
2018-06-07T03:21:12.425Z,68.6
2018-06-07T03:22:13.087Z,68.8
2018-06-07T03:23:13.749Z,69.0
2018-06-07T03:24:14.413Z,68.6
2018-06-07T03:25:15.077Z,68.8
2018-06-07T03:26:15.741Z,68.8
2018-06-07T03:27:16.405Z,68.8
2018-06-07T03:28:17.068Z,68.5
2018-06-07T03:29:17.732Z,68.4
2018-06-07T03:30:18.397Z,68.2
2018-06-07T03:31:19.074Z,68.1
2018-06-07T03:32:19.726Z,68.2
2018-06-07T03:33:20.388Z,68.4
2018-06-07T03:34:21.055Z,68.3
2018-06-07T03:35:21.759Z,67.9
2018-06-07T03:36:22.421Z,67.9
2018-06-07T03:37:23.085Z,67.7
2018-06-07T03:38:23.747Z,67.9
2018-06-07T03:39:24.412Z,67.5
2018-06-07T03:40:25.077Z,67.1
2018-06-07T03:41:25.780Z,66.7
2018-06-07T03:42:26.442Z,67.2
2018-06-07T03:43:27.105Z,66.5
2018-06-07T03:44:27.770Z,66.3
2018-06-07T03:45:28.434Z,66.4
2018-06-07T03:46:29.096Z,66.2
2018-06-07T03:47:29.761Z,66.2
2018-06-07T03:48:30.426Z,65.6
2018-06-07T03:49:31.090Z,65.9
2018-06-07T03:50:31.751Z,65.6
2018-06-07T03:51:32.415Z,65.5
2018-06-07T03:52:33.118Z,65.3
2018-06-07T03:53:33.785Z,65.4
2018-06-07T03:54:34.446Z,65.6
2018-06-07T03:55:35.112Z,65.6
2018-06-07T03:56:35.778Z,65.4
2018-06-07T03:57:36.444Z,65.5
2018-06-07T03:58:37.108Z,66.0
2018-06-07T03:59:37.771Z,66.3
2018-06-07T04:00:38.437Z,65.8
2018-06-07T04:01:39.101Z,65.6
2018-06-07T04:02:39.766Z,65.4
2018-06-07T04:03:40.431Z,65.6
2018-06-07T04:04:41.096Z,65.5
2018-06-07T04:05:41.759Z,65.7
2018-06-07T04:06:42.428Z,65.5
2018-06-07T04:07:43.131Z,65.5
2018-06-07T04:08:43.797Z,65.4
2018-06-07T04:09:44.463Z,65.2
2018-06-07T04:10:45.125Z,65.0
2018-06-07T04:11:45.789Z,65.1
2018-06-07T04:12:46.452Z,65.3
2018-06-07T04:13:47.119Z,65.0
2018-06-07T04:14:47.782Z,64.9
2018-06-07T04:15:48.447Z,65.2
2018-06-07T04:16:49.111Z,64.8
2018-06-07T04:17:49.777Z,65.3
2018-06-07T04:18:50.443Z,64.8
2018-06-07T04:19:51.110Z,64.9
2018-06-07T04:20:51.815Z,64.7
2018-06-07T04:21:52.478Z,64.5
2018-06-07T04:22:53.142Z,64.3
2018-06-07T04:23:53.856Z,64.2
2018-06-07T04:24:54.521Z,64.2
2018-06-07T04:25:55.185Z,64.1
2018-06-07T04:26:55.850Z,63.7
2018-06-07T04:27:56.518Z,63.7
2018-06-07T04:28:57.181Z,63.4
2018-06-07T04:29:57.846Z,63.4
2018-06-07T04:30:58.513Z,62.8
2018-06-07T04:31:59.180Z,62.8
2018-06-07T04:32:59.846Z,62.9
2018-06-07T04:34:00.513Z,63.2
2018-06-07T04:35:01.178Z,62.7
2018-06-07T04:36:01.843Z,62.4
2018-06-07T04:37:02.507Z,62.4
2018-06-07T04:38:03.276Z,62.1
2018-06-07T04:39:03.839Z,62.3
2018-06-07T04:40:04.544Z,62.4
2018-06-07T04:41:05.206Z,62.3
2018-06-07T04:42:05.873Z,62.4
2018-06-07T04:43:06.540Z,62.4
2018-06-07T04:44:07.207Z,62.6
2018-06-07T04:45:07.877Z,62.2
2018-06-07T04:46:08.579Z,62.3
2018-06-07T04:47:09.243Z,62.5
2018-06-07T04:48:09.908Z,62.7
2018-06-07T04:49:10.576Z,62.7
2018-06-07T04:50:11.242Z,62.6
2018-06-07T04:51:11.908Z,62.3
2018-06-07T04:52:12.574Z,61.8
2018-06-07T04:53:13.239Z,62.1
2018-06-07T04:54:13.906Z,61.5
2018-06-07T04:55:14.572Z,61.3
2018-06-07T04:56:15.239Z,61.6
2018-06-07T04:57:15.905Z,61.3
2018-06-07T04:58:16.571Z,61.3
2018-06-07T04:59:17.238Z,61.2
2018-06-07T05:00:17.903Z,61.4
2018-06-07T05:01:18.567Z,61.4
2018-06-07T05:02:19.234Z,61.1
2018-06-07T05:03:19.901Z,61.1
2018-06-07T05:04:20.567Z,60.8
2018-06-07T05:05:21.232Z,61.1
2018-06-07T05:06:21.938Z,61.3
2018-06-07T05:07:22.608Z,60.8
2018-06-07T05:08:23.276Z,60.8
2018-06-07T05:09:23.946Z,61.2
2018-06-07T05:10:24.611Z,61.3
2018-06-07T05:11:25.278Z,61.3
2018-06-07T05:12:25.983Z,61.0
2018-06-07T05:13:26.643Z,60.8
2018-06-07T05:14:27.311Z,61.0
2018-06-07T05:15:28.019Z,61.2
2018-06-07T05:16:28.684Z,61.2
2018-06-07T05:17:29.350Z,61.2
2018-06-07T05:18:30.019Z,60.8
2018-06-07T05:19:30.686Z,60.8
2018-06-07T05:20:31.394Z,60.8
2018-06-07T05:21:32.062Z,60.5
2018-06-07T05:22:32.730Z,60.3
2018-06-07T05:23:33.397Z,59.9
2018-06-07T05:24:34.069Z,59.4
2018-06-07T05:25:34.773Z,59.3
2018-06-07T05:26:35.440Z,59.5
2018-06-07T05:27:36.110Z,58.7
2018-06-07T05:28:36.774Z,58.7
2018-06-07T05:29:37.494Z,58.6
2018-06-07T05:30:38.160Z,57.4
2018-06-07T05:31:38.827Z,57.7
2018-06-07T05:32:39.494Z,57.9
2018-06-07T05:33:40.200Z,58.0
2018-06-07T05:34:40.869Z,57.4
2018-06-07T05:35:41.537Z,57.2
2018-06-07T05:36:42.206Z,57.3
2018-06-07T05:37:42.915Z,57.5
2018-06-07T05:38:43.628Z,57.1
2018-06-07T05:39:44.256Z,57.0
2018-06-07T05:40:44.925Z,57.3
2018-06-07T05:41:45.594Z,57.4
2018-06-07T05:42:46.261Z,57.4
2018-06-07T05:43:46.928Z,57.2
2018-06-07T05:44:47.596Z,56.4
2018-06-07T05:45:48.263Z,56.5
2018-06-07T05:46:48.931Z,56.7
2018-06-07T05:47:49.598Z,56.6
2018-06-07T05:48:50.266Z,56.5
2018-06-07T05:49:50.936Z,56.8
2018-06-07T05:50:51.642Z,56.7
2018-06-07T05:51:52.332Z,57.0
2018-06-07T05:52:52.981Z,57.3
2018-06-07T05:53:53.651Z,56.6
2018-06-07T05:54:54.318Z,56.1
2018-06-07T05:55:55.013Z,56.0
2018-06-07T05:56:55.658Z,55.8
2018-06-07T05:57:56.335Z,56.1
2018-06-07T05:58:56.999Z,56.3
2018-06-07T05:59:57.669Z,55.8
2018-06-07T06:00:58.411Z,55.5
2018-06-07T06:01:59.039Z,55.5
2018-06-07T06:02:59.772Z,55.3
2018-06-07T06:04:00.378Z,55.1
2018-06-07T06:05:01.090Z,55.4
2018-06-07T06:06:01.800Z,54.9
2018-06-07T06:07:02.513Z,55.3
2018-06-07T06:08:03.220Z,55.3
2018-06-07T06:09:03.890Z,54.7
2018-06-07T06:10:04.563Z,53.2
2018-06-07T06:11:05.230Z,51.6
2018-06-07T06:12:05.899Z,50.2
2018-06-07T06:13:06.610Z,48.0
2018-06-07T06:14:07.281Z,46.2
2018-06-07T06:15:08.004Z,45.0
2018-06-07T06:16:08.713Z,44.0
2018-06-07T06:17:09.428Z,42.8
2018-06-07T06:18:10.098Z,41.6
2018-06-07T06:19:10.772Z,41.2
2018-06-07T06:20:11.443Z,39.8
2018-06-07T06:21:12.116Z,38.2
2018-06-07T06:22:12.788Z,38.2
2018-06-07T06:23:13.461Z,37.7
2018-06-07T06:24:14.133Z,37.1
2018-06-07T06:25:14.807Z,36.4
2018-06-07T06:26:15.480Z,35.6
2018-06-07T06:27:16.155Z,35.4
2018-06-07T06:28:16.829Z,35.7
2018-06-07T06:29:17.501Z,35.5
2018-06-07T06:30:18.175Z,35.9
2018-06-07T06:31:18.863Z,36.5
2018-06-07T06:32:19.522Z,36.0
2018-06-07T06:33:20.242Z,35.2
2018-06-07T06:34:20.866Z,34.5
2018-06-07T06:35:21.543Z,33.9
2018-06-07T06:36:22.214Z,33.1
2018-06-07T06:37:22.888Z,32.2
2018-06-07T06:38:23.564Z,31.9
2018-06-07T06:39:24.239Z,30.6
2018-06-07T06:40:24.915Z,30.4
2018-06-07T06:41:25.627Z,30.1
2018-06-07T06:42:26.299Z,29.9
2018-06-07T06:43:26.973Z,29.7
2018-06-07T06:44:27.647Z,29.2
2018-06-07T06:45:28.325Z,28.6
2018-06-07T06:46:29.003Z,28.3
2018-06-07T06:47:29.676Z,28.1
2018-06-07T06:48:30.352Z,27.1
2018-06-07T06:49:31.104Z,27.3
2018-06-07T06:50:31.737Z,27.6
2018-06-07T06:51:32.451Z,27.0
2018-06-07T06:52:33.125Z,27.0
2018-06-07T06:53:33.801Z,27.3
2018-06-07T06:54:34.476Z,27.0
2018-06-07T06:55:35.153Z,27.0
2018-06-07T06:56:35.827Z,27.9
2018-06-07T06:57:36.502Z,28.3
2018-06-07T06:58:37.179Z,28.8
2018-06-07T06:59:37.855Z,29.2
2018-06-07T07:00:38.531Z,30.1
2018-06-07T07:01:39.210Z,30.7
2018-06-07T07:02:39.920Z,32.0
2018-06-07T07:03:40.625Z,32.0
2018-06-07T07:04:41.270Z,32.4
2018-06-07T07:05:41.947Z,32.4
2018-06-07T07:06:42.623Z,31.8
2018-06-07T07:07:43.298Z,30.7
2018-06-07T07:08:43.974Z,30.1
2018-06-07T07:09:44.649Z,30.3
2018-06-07T07:10:45.326Z,30.1
2018-06-07T07:11:46.043Z,30.0
2018-06-07T07:12:46.718Z,29.5
2018-06-07T07:13:47.404Z,30.1
2018-06-07T07:14:48.069Z,30.1
2018-06-07T07:15:48.745Z,30.1
2018-06-07T07:16:49.419Z,30.4
2018-06-07T07:17:50.093Z,30.4
2018-06-07T07:18:50.766Z,30.5
2018-06-07T07:19:51.442Z,30.8
2018-06-07T07:20:52.120Z,31.2
2018-06-07T07:21:52.831Z,31.7
2018-06-07T07:22:53.511Z,31.6
2018-06-07T07:23:54.181Z,32.1
2018-06-07T07:24:54.856Z,32.4
2018-06-07T07:25:55.533Z,32.3
2018-06-07T07:26:56.208Z,32.5
2018-06-07T07:27:56.884Z,33.0
2018-06-07T07:28:57.559Z,33.6
2018-06-07T07:29:58.235Z,34.3
2018-06-07T07:30:58.971Z,34.6
2018-06-07T07:31:59.675Z,35.2
2018-06-07T07:33:00.352Z,34.4
2018-06-07T07:34:01.027Z,33.4
2018-06-07T07:35:01.703Z,32.3
2018-06-07T07:36:02.381Z,31.9
2018-06-07T07:37:03.059Z,30.6
2018-06-07T07:38:03.735Z,30.6
2018-06-07T07:39:04.411Z,29.7
2018-06-07T07:40:05.085Z,29.2
2018-06-07T07:41:05.760Z,28.2
2018-06-07T07:42:06.454Z,27.3
2018-06-07T07:43:07.151Z,27.0
2018-06-07T07:44:07.829Z,26.8
2018-06-07T07:45:08.503Z,25.9
2018-06-07T07:46:09.180Z,25.9
2018-06-07T07:47:09.857Z,25.0
2018-06-07T07:48:10.532Z,25.0
2018-06-07T07:49:11.210Z,24.7
2018-06-07T07:50:11.883Z,24.0
2018-06-07T07:51:12.559Z,23.6
2018-06-07T07:52:13.235Z,23.1
2018-06-07T07:53:13.911Z,23.1
2018-06-07T07:54:14.589Z,23.1
2018-06-07T07:55:15.303Z,23.4
2018-06-07T07:56:15.980Z,23.7
2018-06-07T07:57:16.656Z,23.3
2018-06-07T07:58:17.333Z,23.1
2018-06-07T07:59:18.048Z,23.4
2018-06-07T08:00:18.724Z,23.1
2018-06-07T08:01:19.397Z,23.1
2018-06-07T08:02:20.075Z,23.1
2018-06-07T08:03:20.747Z,23.3
2018-06-07T08:04:21.420Z,22.9
2018-06-07T08:05:22.137Z,23.1
2018-06-07T08:06:22.812Z,22.7
2018-06-07T08:07:23.487Z,22.3
2018-06-07T08:08:24.163Z,22.5
2018-06-07T08:09:24.838Z,22.1
2018-06-07T08:10:25.514Z,22.5
2018-06-07T08:11:26.189Z,21.4
2018-06-07T08:12:26.863Z,22.4
2018-06-07T08:13:27.538Z,23.2
2018-06-07T08:14:28.212Z,22.8
2018-06-07T08:15:28.888Z,22.1
2018-06-07T08:16:29.564Z,22.4
2018-06-07T08:17:30.240Z,21.7
2018-06-07T08:18:30.917Z,21.3
2018-06-07T08:19:31.595Z,21.4
2018-06-07T08:20:32.270Z,21.2
2018-06-07T08:21:32.948Z,21.3
2018-06-07T08:22:33.624Z,21.2
2018-06-07T08:23:34.301Z,21.0
2018-06-07T08:24:34.976Z,20.7
2018-06-07T08:25:35.654Z,20.1
2018-06-07T08:26:36.329Z,20.2
2018-06-07T08:27:37.007Z,21.0
2018-06-07T08:28:37.682Z,20.9
2018-06-07T08:29:38.360Z,21.1
2018-06-07T08:30:39.035Z,21.0
2018-06-07T08:31:39.752Z,21.8
2018-06-07T08:32:40.428Z,22.2
2018-06-07T08:33:41.105Z,22.1
2018-06-07T08:34:41.781Z,21.5
2018-06-07T08:35:42.457Z,21.3
2018-06-07T08:36:43.133Z,22.1
2018-06-07T08:37:43.806Z,22.2
2018-06-07T08:38:44.496Z,21.4
2018-06-07T08:39:45.175Z,21.2
2018-06-07T08:40:45.853Z,21.3
2018-06-07T08:41:46.569Z,21.0
2018-06-07T08:42:47.245Z,21.3
2018-06-07T08:43:47.925Z,21.4
2018-06-07T08:44:48.639Z,21.3
2018-06-07T08:45:49.318Z,21.2
2018-06-07T08:46:49.993Z,21.1
2018-06-07T08:47:50.670Z,21.3
2018-06-07T08:48:51.348Z,21.4
2018-06-07T08:49:52.024Z,21.1
2018-06-07T08:50:52.702Z,21.5
2018-06-07T08:51:53.418Z,21.2
2018-06-07T08:52:54.094Z,21.5
2018-06-07T08:53:54.765Z,21.2
2018-06-07T08:54:55.439Z,22.5
2018-06-07T08:55:56.112Z,22.4
2018-06-07T08:56:56.786Z,23.1
2018-06-07T08:57:57.459Z,23.7
2018-06-07T08:58:58.190Z,24.0
2018-06-07T08:59:58.809Z,24.4
2018-06-07T09:00:59.483Z,24.1
2018-06-07T09:02:00.156Z,23.1
2018-06-07T09:03:00.871Z,23.4
2018-06-07T09:04:01.548Z,23.1
2018-06-07T09:05:02.224Z,22.7
2018-06-07T09:06:02.905Z,23.0
2018-06-07T09:07:03.591Z,23.7
2018-06-07T09:08:04.256Z,23.0
2018-06-07T09:09:04.973Z,23.4
2018-06-07T09:10:05.641Z,23.2
2018-06-07T09:11:06.316Z,23.5
2018-06-07T09:12:06.990Z,23.5
2018-06-07T09:13:07.664Z,23.0
2018-06-07T09:14:08.337Z,23.0
2018-06-07T09:15:09.010Z,22.4
2018-06-07T09:16:09.686Z,22.4
2018-06-07T09:17:10.414Z,22.8
2018-06-07T09:18:11.086Z,23.0
2018-06-07T09:19:11.761Z,23.1
2018-06-07T09:20:12.435Z,23.3
2018-06-07T09:21:13.108Z,22.6
2018-06-07T09:22:13.783Z,22.3
2018-06-07T09:23:14.496Z,22.4
2018-06-07T09:24:15.173Z,22.1
2018-06-07T09:25:15.848Z,22.1
2018-06-07T09:26:16.524Z,22.1
2018-06-07T09:27:17.198Z,22.3
2018-06-07T09:28:17.873Z,22.7
2018-06-07T09:29:18.545Z,22.4
2018-06-07T09:30:19.220Z,22.5
2018-06-07T09:31:19.932Z,22.7
2018-06-07T09:32:20.607Z,23.2
2018-06-07T09:33:21.282Z,23.9
2018-06-07T09:34:21.968Z,24.4
2018-06-07T09:35:22.630Z,24.9
2018-06-07T09:36:23.305Z,25.2
2018-06-07T09:37:23.984Z,25.3
2018-06-07T09:38:24.654Z,25.1
2018-06-07T09:39:25.327Z,25.1
2018-06-07T09:40:26.001Z,25.4
2018-06-07T09:41:26.681Z,26.0
2018-06-07T09:42:27.353Z,26.1
2018-06-07T09:43:28.028Z,26.1
2018-06-07T09:44:28.706Z,25.7
2018-06-07T09:45:29.380Z,25.9
2018-06-07T09:46:30.055Z,26.2
2018-06-07T09:47:30.728Z,26.0
2018-06-07T09:48:31.405Z,26.3
2018-06-07T09:49:32.116Z,26.5
2018-06-07T09:50:32.790Z,26.6
2018-06-07T09:51:33.464Z,26.5
2018-06-07T09:52:34.139Z,26.4
2018-06-07T09:53:34.815Z,26.7
2018-06-07T09:54:35.489Z,26.3
2018-06-07T09:55:36.163Z,26.9
2018-06-07T09:56:36.838Z,27.4
2018-06-07T09:57:37.511Z,27.8
2018-06-07T09:58:38.185Z,28.2
2018-06-07T09:59:38.861Z,28.3
2018-06-07T10:00:39.539Z,27.7
2018-06-07T10:01:40.212Z,27.6
2018-06-07T10:02:40.890Z,28.1
2018-06-07T10:03:41.568Z,28.3
2018-06-07T10:04:42.279Z,28.0
2018-06-07T10:05:42.955Z,28.4
2018-06-07T10:06:43.632Z,28.2
2018-06-07T10:07:44.307Z,28.5
2018-06-07T10:08:44.981Z,28.4
2018-06-07T10:09:45.655Z,28.3
2018-06-07T10:10:46.328Z,28.7
2018-06-07T10:11:47.003Z,28.3
2018-06-07T10:12:47.676Z,28.3
2018-06-07T10:13:48.354Z,29.0
2018-06-07T10:14:49.028Z,29.5
2018-06-07T10:15:49.701Z,29.8
2018-06-07T10:16:50.374Z,30.1
2018-06-07T10:17:51.050Z,30.1
2018-06-07T10:18:51.725Z,30.5
2018-06-07T10:19:52.396Z,30.8
2018-06-07T10:20:53.070Z,31.1
2018-06-07T10:21:53.746Z,31.6
2018-06-07T10:22:54.461Z,32.0
2018-06-07T10:23:55.138Z,32.1
2018-06-07T10:24:55.813Z,32.1
2018-06-07T10:25:56.491Z,33.1
2018-06-07T10:26:57.164Z,33.4
2018-06-07T10:27:57.838Z,33.3
2018-06-07T10:28:58.513Z,32.9
2018-06-07T10:29:59.224Z,32.5
2018-06-07T10:30:59.897Z,32.6
2018-06-07T10:32:00.576Z,33.1
2018-06-07T10:33:01.341Z,33.3
2018-06-07T10:34:02.060Z,33.9
2018-06-07T10:35:02.775Z,34.3
2018-06-07T10:36:03.432Z,34.6
2018-06-07T10:37:04.107Z,34.8
2018-06-07T10:38:04.783Z,34.7
2018-06-07T10:39:05.460Z,34.8
2018-06-07T10:40:06.135Z,35.4
2018-06-07T10:41:06.809Z,35.8
2018-06-07T10:42:07.484Z,36.9
2018-06-07T10:43:08.157Z,37.3
2018-06-07T10:44:08.832Z,37.9
2018-06-07T10:45:09.504Z,38.5
2018-06-07T10:46:10.177Z,38.7
2018-06-07T10:47:10.849Z,38.7
2018-06-07T10:48:11.523Z,38.2
2018-06-07T10:49:12.197Z,37.7
2018-06-07T10:50:12.912Z,37.7
2018-06-07T10:51:13.552Z,37.6
2018-06-07T10:52:14.258Z,37.7
2018-06-07T10:53:14.893Z,37.5
2018-06-07T10:54:15.566Z,37.5
2018-06-07T10:55:16.241Z,37.4
2018-06-07T10:56:16.918Z,37.7
2018-06-07T10:57:17.593Z,37.8
2018-06-07T10:58:18.268Z,37.9
2018-06-07T10:59:18.944Z,37.9
2018-06-07T11:00:19.619Z,37.3
2018-06-07T11:01:20.292Z,37.9
2018-06-07T11:02:20.966Z,37.4
2018-06-07T11:03:21.691Z,37.5
2018-06-07T11:04:22.365Z,37.7
2018-06-07T11:05:23.037Z,37.2
2018-06-07T11:06:23.718Z,37.3
2018-06-07T11:07:24.420Z,37.5
2018-06-07T11:08:25.094Z,38.0
2018-06-07T11:09:25.769Z,38.0
2018-06-07T11:10:26.443Z,38.3
2018-06-07T11:11:27.116Z,38.7
2018-06-07T11:12:27.789Z,38.5
2018-06-07T11:13:28.463Z,38.5
2018-06-07T11:14:29.137Z,38.8
2018-06-07T11:15:29.814Z,38.9
2018-06-07T11:16:30.489Z,38.6
2018-06-07T11:17:31.164Z,38.5
2018-06-07T11:18:31.887Z,38.6
2018-06-07T11:19:32.562Z,39.2
2018-06-07T11:20:33.237Z,39.3
2018-06-07T11:21:33.912Z,39.4
2018-06-07T11:22:34.587Z,38.4
2018-06-07T11:23:35.266Z,38.1
2018-06-07T11:24:35.939Z,38.5
2018-06-07T11:25:36.612Z,38.0
2018-06-07T11:26:37.285Z,38.1
2018-06-07T11:27:37.957Z,38.2
2018-06-07T11:28:38.630Z,38.5
2018-06-07T11:29:39.304Z,38.5
2018-06-07T11:30:39.976Z,38.7
2018-06-07T11:31:40.650Z,38.5
2018-06-07T11:32:41.327Z,38.9
2018-06-07T11:33:41.995Z,38.8
2018-06-07T11:34:42.668Z,39.2
2018-06-07T11:35:43.342Z,39.4
2018-06-07T11:36:44.017Z,39.9
2018-06-07T11:37:44.697Z,39.9
2018-06-07T11:38:45.368Z,40.3
2018-06-07T11:39:46.083Z,40.1
2018-06-07T11:40:46.793Z,39.9
2018-06-07T11:41:47.434Z,39.8
2018-06-07T11:42:48.107Z,40.4
2018-06-07T11:43:48.784Z,40.5
2018-06-07T11:44:49.456Z,41.0
2018-06-07T11:45:50.131Z,41.3
2018-06-07T11:46:50.802Z,41.9
2018-06-07T11:47:51.478Z,42.8
2018-06-07T11:48:52.301Z,42.8
2018-06-07T11:49:52.910Z,43.5
2018-06-07T11:50:53.583Z,43.3
2018-06-07T11:51:54.255Z,44.3
2018-06-07T11:52:54.926Z,44.3
2018-06-07T11:53:55.598Z,44.3
2018-06-07T11:54:56.291Z,44.3
2018-06-07T11:55:56.976Z,44.4
2018-06-07T11:56:57.648Z,44.6
2018-06-07T11:57:58.364Z,44.5
2018-06-07T11:58:59.077Z,44.6
2018-06-07T11:59:59.747Z,45.1
2018-06-07T12:01:00.419Z,45.4
2018-06-07T12:02:01.093Z,45.6
2018-06-07T12:03:01.766Z,45.7
2018-06-07T12:04:02.490Z,45.5
2018-06-07T12:05:03.161Z,45.6
2018-06-07T12:06:03.865Z,45.5
2018-06-07T12:07:04.508Z,46.1
2018-06-07T12:08:05.188Z,46.1
2018-06-07T12:09:05.858Z,46.1
2018-06-07T12:10:06.537Z,47.4
2018-06-07T12:11:07.210Z,47.8
2018-06-07T12:12:07.920Z,48.8
2018-06-07T12:13:08.592Z,48.9
2018-06-07T12:14:09.264Z,49.1
2018-06-07T12:15:09.935Z,48.8
2018-06-07T12:16:10.605Z,48.9
2018-06-07T12:17:11.279Z,49.1
2018-06-07T12:18:11.951Z,49.0
2018-06-07T12:19:12.622Z,49.3
2018-06-07T12:20:13.295Z,49.2
2018-06-07T12:21:13.966Z,50.4
2018-06-07T12:22:14.641Z,51.9
2018-06-07T12:23:15.313Z,52.3
2018-06-07T12:24:15.986Z,53.0
2018-06-07T12:25:16.687Z,53.1
2018-06-07T12:26:17.364Z,53.0
2018-06-07T12:27:18.075Z,53.0
2018-06-07T12:28:18.746Z,53.4
2018-06-07T12:29:19.418Z,53.3
2018-06-07T12:30:20.091Z,53.5
2018-06-07T12:31:20.761Z,53.3
2018-06-07T12:32:21.435Z,53.4
2018-06-07T12:33:22.109Z,53.7
2018-06-07T12:34:22.834Z,53.0
2018-06-07T12:35:23.546Z,53.3
2018-06-07T12:36:24.219Z,53.3
2018-06-07T12:37:24.891Z,53.0
2018-06-07T12:38:25.564Z,52.8
2018-06-07T12:39:26.239Z,53.8
2018-06-07T12:40:27.024Z,53.8
2018-06-07T12:41:27.619Z,53.7
2018-06-07T12:42:28.291Z,53.9
2018-06-07T12:43:28.964Z,53.8
2018-06-07T12:44:29.639Z,53.6
2018-06-07T12:45:30.310Z,53.5
2018-06-07T12:46:31.022Z,52.6
2018-06-07T12:47:31.695Z,53.1
2018-06-07T12:48:32.368Z,53.1
2018-06-07T12:49:33.089Z,53.3
2018-06-07T12:50:33.760Z,54.0
2018-06-07T12:51:34.434Z,54.0
2018-06-07T12:52:35.103Z,53.9
2018-06-07T12:53:35.776Z,53.8
2018-06-07T12:54:36.449Z,53.5
2018-06-07T12:55:37.163Z,53.7
2018-06-07T12:56:37.836Z,53.4
2018-06-07T12:57:38.508Z,53.4
2018-06-07T12:58:39.183Z,53.6
2018-06-07T12:59:39.855Z,53.4
2018-06-07T13:00:40.523Z,53.0
2018-06-07T13:01:41.194Z,53.2
2018-06-07T13:02:41.907Z,52.9
2018-06-07T13:03:42.580Z,51.1
2018-06-07T13:04:43.302Z,50.6
2018-06-07T13:05:43.975Z,50.5
2018-06-07T13:06:44.648Z,50.7
2018-06-07T13:07:45.321Z,50.7
2018-06-07T13:08:45.992Z,50.4
2018-06-07T13:09:46.665Z,49.8
2018-06-07T13:10:47.339Z,48.8
2018-06-07T13:11:48.011Z,49.5
2018-06-07T13:12:48.685Z,49.4
2018-06-07T13:13:49.447Z,49.1
2018-06-07T13:14:50.113Z,49.0
2018-06-07T13:15:50.787Z,49.4
2018-06-07T13:16:51.463Z,49.8
2018-06-07T13:17:52.136Z,49.4
2018-06-07T13:18:52.853Z,49.6
2018-06-07T13:19:53.560Z,50.1
2018-06-07T13:20:54.231Z,49.5
2018-06-07T13:21:54.904Z,49.8
2018-06-07T13:22:55.577Z,50.0
2018-06-07T13:23:56.249Z,49.8
2018-06-07T13:24:56.921Z,50.4
2018-06-07T13:25:57.593Z,50.7
2018-06-07T13:26:58.265Z,50.4
2018-06-07T13:27:58.979Z,50.6